createdAt,value
2019-01-28T00:00:12.586Z,96.50
2019-01-28T00:02:41.575Z,96.30
2019-01-28T00:05:10.500Z,96.10
2019-01-28T00:07:39.494Z,96.30
2019-01-28T00:10:08.828Z,96.50
2019-01-28T00:12:37.831Z,96.70
2019-01-28T00:15:08.247Z,96.60
2019-01-28T00:17:37.356Z,96.40
2019-01-28T00:20:07.175Z,96.20
2019-01-28T00:22:36.174Z,96.30
2019-01-28T00:25:06.605Z,96.40
2019-01-28T00:27:35.594Z,96.50
2019-01-28T00:30:06.218Z,96.40
2019-01-28T00:32:35.203Z,96.40
2019-01-28T00:35:05.135Z,96.30
2019-01-28T00:37:34.120Z,96.40
2019-01-28T00:40:03.051Z,96.20
2019-01-28T00:42:32.050Z,96.30
2019-01-28T00:45:01.084Z,96.20
2019-01-28T00:47:30.074Z,96.40
2019-01-28T00:49:58.988Z,96.30
2019-01-28T00:52:27.987Z,96.30
2019-01-28T00:54:56.920Z,96.50
2019-01-28T00:57:25.904Z,96.60
2019-01-28T00:59:54.836Z,96.50
2019-01-28T01:02:23.941Z,96.60
2019-01-28T01:04:52.860Z,96.60
2019-01-28T01:07:22.256Z,96.60
2019-01-28T01:09:51.198Z,96.60
2019-01-28T01:12:20.192Z,96.70
2019-01-28T01:14:49.150Z,96.60
2019-01-28T01:17:18.061Z,96.80
2019-01-28T01:19:47.059Z,96.80
2019-01-28T01:22:15.987Z,96.50
2019-01-28T01:24:44.991Z,96.70
2019-01-28T01:27:14.011Z,96.80
2019-01-28T01:29:43.015Z,96.90
2019-01-28T01:32:11.951Z,96.80
2019-01-28T01:34:40.944Z,96.70
2019-01-28T01:37:09.864Z,96.70
2019-01-28T01:39:38.955Z,96.60
2019-01-28T01:42:07.985Z,96.70
2019-01-28T01:44:36.988Z,96.70
2019-01-28T01:47:05.912Z,96.40
2019-01-28T01:49:34.914Z,96.60
2019-01-28T01:52:03.847Z,96.70
2019-01-28T01:54:32.843Z,96.50
2019-01-28T01:57:01.866Z,96.60
2019-01-28T01:59:30.860Z,96.50
2019-01-28T02:01:59.780Z,96.50
2019-01-28T02:04:28.768Z,96.60
2019-01-28T02:06:57.696Z,96.40
2019-01-28T02:09:26.794Z,96.20
2019-01-28T02:11:55.817Z,96.20
2019-01-28T02:14:24.816Z,96.00
2019-01-28T02:16:53.738Z,96.10
2019-01-28T02:19:22.676Z,96.50
2019-01-28T02:21:51.670Z,96.20
2019-01-28T02:24:20.598Z,96.20
2019-01-28T02:26:49.588Z,96.30
2019-01-28T02:29:18.512Z,96.10
2019-01-28T02:31:47.615Z,96.00
2019-01-28T02:34:16.550Z,96.10
2019-01-28T02:36:45.542Z,96.10
2019-01-28T02:39:14.594Z,95.90
2019-01-28T02:41:43.694Z,95.80
2019-01-28T02:44:12.627Z,95.30
2019-01-28T02:46:41.766Z,95.50
2019-01-28T02:49:10.709Z,95.80
2019-01-28T02:51:39.808Z,95.50
2019-01-28T02:54:08.828Z,95.50
2019-01-28T02:56:37.842Z,95.10
2019-01-28T02:59:06.764Z,94.90
2019-01-28T03:01:35.745Z,94.70
2019-01-28T03:04:04.674Z,94.30
2019-01-28T03:06:33.772Z,94.40
2019-01-28T03:09:02.710Z,94.00
2019-01-28T03:11:31.802Z,94.50
2019-01-28T03:14:00.720Z,94.40
2019-01-28T03:16:29.719Z,94.70
2019-01-28T03:18:58.744Z,94.60
2019-01-28T03:21:27.784Z,94.80
2019-01-28T03:23:56.865Z,95.20
2019-01-28T03:26:28.536Z,95.10
2019-01-28T03:28:57.521Z,95.30
2019-01-28T03:31:26.551Z,94.60
2019-01-28T03:33:55.544Z,94.90
2019-01-28T03:36:24.478Z,94.80
2019-01-28T03:38:53.475Z,94.40
2019-01-28T03:41:22.399Z,94.50
2019-01-28T03:43:51.499Z,95.10
2019-01-28T03:46:20.543Z,94.80
2019-01-28T03:48:49.531Z,94.00
2019-01-28T03:51:18.552Z,94.10
2019-01-28T03:53:47.647Z,94.40
2019-01-28T03:56:16.681Z,94.60
2019-01-28T03:58:45.668Z,94.80
2019-01-28T04:01:14.614Z,95.00
2019-01-28T04:03:43.580Z,95.10
2019-01-28T04:06:12.610Z,95.30
2019-01-28T04:08:41.696Z,95.20
2019-01-28T04:11:10.735Z,95.30
2019-01-28T04:13:39.720Z,95.40
2019-01-28T04:16:08.650Z,95.00
2019-01-28T04:18:37.646Z,95.10
2019-01-28T04:21:06.578Z,95.20
2019-01-28T04:23:35.564Z,95.40
2019-01-28T04:26:04.496Z,95.40
2019-01-28T04:28:33.482Z,95.30
2019-01-28T04:31:02.414Z,95.20
2019-01-28T04:33:31.410Z,95.40
2019-01-28T04:36:00.336Z,95.20
2019-01-28T04:38:29.260Z,95.50
2019-01-28T04:40:58.259Z,95.40
2019-01-28T04:43:27.186Z,95.40
2019-01-28T04:45:56.282Z,95.30
2019-01-28T04:48:25.219Z,95.10
2019-01-28T04:50:54.202Z,94.90
2019-01-28T04:53:23.132Z,95.00
2019-01-28T04:55:52.132Z,95.20
2019-01-28T04:58:21.159Z,95.20
2019-01-28T05:01:09.168Z,95.20
2019-01-28T05:03:38.162Z,95.20
2019-01-28T05:06:07.254Z,95.40
2019-01-28T05:08:36.190Z,95.20
2019-01-28T05:11:05.325Z,95.00
2019-01-28T05:13:34.267Z,94.80
2019-01-28T05:16:03.345Z,95.00
2019-01-28T05:18:32.286Z,95.00
2019-01-28T05:21:01.301Z,94.70
2019-01-28T05:23:30.213Z,94.30
2019-01-28T05:25:59.225Z,94.60
2019-01-28T05:28:28.241Z,94.80
2019-01-28T05:30:57.337Z,95.00
2019-01-28T05:33:26.282Z,94.60
2019-01-28T05:35:55.289Z,94.60
2019-01-28T05:38:24.310Z,94.60
2019-01-28T05:40:56.432Z,94.70
2019-01-28T05:43:25.359Z,94.60
2019-01-28T05:45:54.365Z,94.70
2019-01-28T05:48:23.392Z,94.70
2019-01-28T05:50:52.492Z,94.80
2019-01-28T05:53:21.424Z,94.60
2019-01-28T05:55:50.405Z,94.80
2019-01-28T05:58:19.342Z,95.10
2019-01-28T06:00:48.429Z,95.00
2019-01-28T06:03:17.370Z,95.20
2019-01-28T06:05:46.475Z,95.30
2019-01-28T06:08:15.389Z,95.50
2019-01-28T06:10:44.366Z,95.60
2019-01-28T06:13:13.400Z,95.50
2019-01-28T06:15:42.518Z,95.40
2019-01-28T06:18:11.521Z,95.50
2019-01-28T06:20:40.443Z,95.50
2019-01-28T06:23:09.540Z,95.60
2019-01-28T06:25:38.680Z,95.60
2019-01-28T06:28:07.837Z,95.50
2019-01-28T06:30:36.987Z,95.40
2019-01-28T06:33:06.090Z,95.90
2019-01-28T06:35:35.027Z,95.80
2019-01-28T06:38:04.124Z,95.70
2019-01-28T06:40:34.671Z,95.70
2019-01-28T06:43:03.747Z,95.70
2019-01-28T06:45:32.775Z,95.60
2019-01-28T06:48:01.892Z,95.60
2019-01-28T06:50:30.936Z,95.70
2019-01-28T06:53:00.048Z,95.90
2019-01-28T06:55:29.091Z,96.00
2019-01-28T06:57:58.174Z,96.00
2019-01-28T07:00:32.119Z,96.10
2019-01-28T07:03:01.146Z,96.20
2019-01-28T07:05:30.203Z,96.30
2019-01-28T07:07:59.278Z,96.30
2019-01-28T07:10:28.419Z,96.30
2019-01-28T07:12:57.678Z,96.20
2019-01-28T07:15:26.768Z,96.20
2019-01-28T07:17:55.816Z,96.30
2019-01-28T07:20:27.685Z,96.30
2019-01-28T07:22:56.628Z,96.10
2019-01-28T07:25:25.620Z,96.10
2019-01-28T07:27:54.563Z,96.20
2019-01-28T07:30:26.242Z,96.10
2019-01-28T07:32:55.290Z,96.10
2019-01-28T07:35:24.278Z,96.00
2019-01-28T07:37:53.192Z,96.00
2019-01-28T07:40:22.197Z,95.80
2019-01-28T07:42:51.327Z,95.50
2019-01-28T07:45:28.549Z,95.30
2019-01-28T07:48:02.654Z,95.30
2019-01-28T07:50:28.026Z,94.80
2019-01-28T07:52:57.073Z,94.90
2019-01-28T07:55:26.049Z,95.00
2019-01-28T07:57:54.973Z,95.00
2019-01-28T08:00:29.148Z,95.30
2019-01-28T08:02:58.085Z,95.30
2019-01-28T08:05:27.867Z,95.30
2019-01-28T08:07:56.784Z,95.60
2019-01-28T08:10:25.796Z,95.40
2019-01-28T08:12:54.759Z,95.20
2019-01-28T08:15:28.321Z,95.40
2019-01-28T08:17:57.244Z,95.20
2019-01-28T08:20:26.256Z,95.20
2019-01-28T08:22:55.181Z,94.90
2019-01-28T08:25:24.162Z,94.50
2019-01-28T08:27:53.322Z,94.20
2019-01-28T08:30:30.315Z,94.00
2019-01-28T08:32:59.552Z,94.30
2019-01-28T08:35:29.986Z,93.90
2019-01-28T08:37:58.989Z,93.50
2019-01-28T08:40:27.912Z,93.60
2019-01-28T08:42:56.938Z,93.70
2019-01-28T08:45:25.867Z,93.60
2019-01-28T08:54:06.066Z,93.90
2019-01-28T08:56:35.077Z,94.40
2019-01-28T08:59:05.104Z,94.20
2019-01-28T09:01:34.209Z,94.10
2019-01-28T09:04:03.140Z,94.20
2019-01-28T09:06:32.065Z,94.30
2019-01-28T09:09:01.173Z,94.10
2019-01-28T09:11:30.204Z,94.00
2019-01-28T09:13:59.196Z,93.80
2019-01-28T09:16:28.235Z,93.80
2019-01-28T09:18:57.323Z,93.50
2019-01-28T09:21:26.338Z,93.40
2019-01-28T09:23:55.340Z,93.70
2019-01-28T09:26:24.260Z,93.90
2019-01-28T09:29:08.294Z,94.00
2019-01-28T09:31:37.209Z,94.00
2019-01-28T09:34:06.267Z,93.90
2019-01-28T09:36:35.183Z,94.00
2019-01-28T09:39:06.045Z,93.90
2019-01-28T09:41:35.696Z,93.40
2019-01-28T09:44:07.572Z,93.50
2019-01-28T09:46:36.526Z,93.00
2019-01-28T09:49:05.520Z,93.20
2019-01-28T09:51:34.550Z,93.20
2019-01-28T09:54:03.539Z,92.70
2019-01-28T09:56:32.470Z,92.60
2019-01-28T09:59:01.461Z,92.80
2019-01-28T10:01:30.491Z,93.00
2019-01-28T10:03:59.595Z,93.20
2019-01-28T10:06:28.519Z,92.90
2019-01-28T10:08:57.522Z,92.60
2019-01-28T10:11:26.542Z,92.80
2019-01-28T10:13:55.537Z,93.00
2019-01-28T10:16:24.464Z,92.70
2019-01-28T10:18:53.573Z,92.60
2019-01-28T10:21:22.497Z,92.80
2019-01-28T10:23:51.493Z,93.10
2019-01-28T10:26:20.424Z,92.90
2019-01-28T10:28:49.435Z,93.10
2019-01-28T10:31:18.473Z,93.00
2019-01-28T10:33:47.416Z,93.40
2019-01-28T10:36:16.506Z,93.20
2019-01-28T10:38:45.434Z,92.90
2019-01-28T10:41:14.535Z,93.10
2019-01-28T10:43:43.458Z,92.80
2019-01-28T10:46:12.664Z,93.00
2019-01-28T10:48:49.374Z,92.10
2019-01-28T10:51:12.127Z,93.20
2019-01-28T10:53:41.179Z,92.60
2019-01-28T10:56:10.177Z,92.70
2019-01-28T10:58:39.105Z,92.90
2019-01-28T11:01:08.108Z,92.60
2019-01-28T11:03:37.032Z,92.30
2019-01-28T11:06:06.026Z,92.60
2019-01-28T11:08:34.959Z,92.20
2019-01-28T11:11:03.993Z,91.90
2019-01-28T11:13:33.069Z,92.00
2019-01-28T11:16:02.296Z,91.60
2019-01-28T11:18:31.385Z,92.10
2019-01-28T11:21:00.560Z,92.20
2019-01-28T11:23:32.829Z,92.00
2019-01-28T11:26:01.880Z,91.90
2019-01-28T11:28:31.112Z,91.80
2019-01-28T11:31:01.340Z,92.20
2019-01-28T11:33:30.553Z,92.00
2019-01-28T11:36:05.333Z,91.90
2019-01-28T11:38:46.369Z,92.20
2019-01-28T11:41:15.667Z,92.50
2019-01-28T11:43:44.722Z,92.40
2019-01-28T11:46:13.856Z,92.40
2019-01-28T11:48:42.986Z,92.30
2019-01-28T11:51:12.073Z,92.50
2019-01-28T11:53:41.101Z,92.20
2019-01-28T11:56:10.051Z,92.50
2019-01-28T11:58:39.076Z,92.80
2019-01-28T12:01:09.753Z,92.70
2019-01-28T12:03:38.745Z,92.40
2019-01-28T12:06:07.896Z,92.50
2019-01-28T12:08:36.895Z,92.40
2019-01-28T12:11:08.662Z,92.80
2019-01-28T12:13:36.649Z,92.50
2019-01-28T12:16:05.604Z,92.60
2019-01-28T12:18:34.593Z,92.80
2019-01-28T12:21:03.616Z,92.80
2019-01-28T12:23:34.483Z,93.50
2019-01-28T12:26:03.087Z,93.10
2019-01-28T12:28:32.182Z,93.30
2019-01-28T12:31:01.124Z,93.60
2019-01-28T12:33:30.117Z,93.50
2019-01-28T12:35:59.072Z,93.50
2019-01-28T12:38:28.048Z,93.20
2019-01-28T12:40:56.985Z,93.20
2019-01-28T12:43:25.988Z,93.40
2019-01-28T12:45:54.924Z,93.60
2019-01-28T12:48:23.930Z,93.50
2019-01-28T12:50:52.856Z,93.40
2019-01-28T12:53:21.872Z,93.70
2019-01-28T12:56:02.089Z,93.30
2019-01-28T12:58:37.213Z,93.50
2019-01-28T13:01:06.239Z,93.50
2019-01-28T13:03:35.167Z,93.80
2019-01-28T13:06:04.152Z,93.70
2019-01-28T13:08:33.206Z,93.50
2019-01-28T13:11:02.175Z,93.70
2019-01-28T13:13:31.110Z,94.10
2019-01-28T13:16:00.110Z,94.00
2019-01-28T13:18:29.039Z,93.80
2019-01-28T13:20:58.019Z,94.40
2019-01-28T13:23:26.943Z,94.00
2019-01-28T13:25:55.937Z,94.30
2019-01-28T13:28:24.878Z,94.10
2019-01-28T13:30:53.877Z,93.60
2019-01-28T13:33:22.805Z,93.70
2019-01-28T13:35:51.808Z,94.00
2019-01-28T13:38:20.852Z,94.00
2019-01-28T13:40:49.947Z,93.90
2019-01-28T13:43:18.879Z,93.90
2019-01-28T13:45:47.883Z,94.20
2019-01-28T13:48:17.004Z,94.20
2019-01-28T13:50:46.007Z,94.30
2019-01-28T13:53:14.957Z,94.30
2019-01-28T13:55:43.920Z,94.50
2019-01-28T13:58:12.857Z,94.50
2019-01-28T14:00:41.864Z,94.30
2019-01-28T14:03:10.810Z,94.40
2019-01-28T14:05:39.821Z,94.90
2019-01-28T14:08:08.759Z,94.90
2019-01-28T14:10:37.876Z,95.10
2019-01-28T14:13:06.800Z,94.90
2019-01-28T14:15:37.702Z,95.00
2019-01-28T14:18:07.835Z,94.90
2019-01-28T14:20:38.629Z,95.10
2019-01-28T14:23:07.569Z,95.10
2019-01-28T14:25:36.609Z,95.50
2019-01-28T14:28:06.126Z,95.30
2019-01-28T14:30:43.548Z,95.20
2019-01-28T14:33:12.551Z,95.40
2019-01-28T14:35:41.580Z,95.70
2019-01-28T14:38:11.291Z,95.60
2019-01-28T14:40:40.907Z,95.60
2019-01-28T14:43:09.915Z,95.80
2019-01-28T14:45:38.829Z,95.70
2019-01-28T14:48:08.234Z,95.70
2019-01-28T14:50:38.244Z,95.50
2019-01-28T14:53:07.249Z,95.50
2019-01-28T14:55:36.281Z,95.60
2019-01-28T14:58:06.585Z,95.70
2019-01-28T15:00:37.908Z,95.50
2019-01-28T15:03:06.907Z,95.70
2019-01-28T15:05:35.831Z,95.70
2019-01-28T15:08:05.250Z,95.70
2019-01-28T15:10:34.163Z,95.70
2019-01-28T15:13:05.953Z,95.70
2019-01-28T15:15:37.086Z,95.50
2019-01-28T15:18:06.675Z,95.80
2019-01-28T15:20:35.609Z,95.90
2019-01-28T15:23:04.607Z,96.00
2019-01-28T15:25:33.534Z,96.00
2019-01-28T15:28:02.520Z,95.90
2019-01-28T15:30:31.915Z,96.00
2019-01-28T15:33:00.986Z,96.20
2019-01-28T15:35:29.979Z,96.30
2019-01-28T15:37:58.987Z,96.50
2019-01-28T15:40:32.156Z,96.50
2019-01-28T15:43:01.195Z,96.70
2019-01-28T15:45:41.340Z,96.90
2019-01-28T15:48:10.373Z,96.80
2019-01-28T15:50:39.367Z,96.80
2019-01-28T15:53:08.299Z,96.70
2019-01-28T15:55:38.987Z,96.90
2019-01-28T15:58:08.316Z,97.00
2019-01-28T16:00:39.423Z,97.10
2019-01-28T16:03:09.064Z,97.00
2019-01-28T16:05:38.246Z,97.30
2019-01-28T16:08:07.574Z,97.30
2019-01-28T16:10:36.673Z,97.20
2019-01-28T16:13:05.606Z,97.30
2019-01-28T16:15:39.565Z,97.30
2019-01-28T16:18:09.251Z,97.40
2019-01-28T16:20:38.602Z,97.30
2019-01-28T16:23:07.808Z,97.30
2019-01-28T16:25:36.805Z,97.10
2019-01-28T16:28:06.112Z,97.20
2019-01-28T16:30:35.208Z,97.20
2019-01-28T16:33:04.344Z,97.30
2019-01-28T16:35:33.333Z,97.40
2019-01-28T16:38:02.257Z,97.40
2019-01-28T16:40:31.551Z,97.50
2019-01-28T16:43:00.480Z,97.50
2019-01-28T16:45:29.483Z,97.50
2019-01-28T16:47:58.507Z,97.40
2019-01-28T16:50:31.914Z,97.60
2019-01-28T16:53:00.947Z,97.70
2019-01-28T16:55:29.950Z,97.60
2019-01-28T16:57:59.399Z,97.60
2019-01-28T17:00:33.972Z,97.60
2019-01-28T17:03:02.901Z,97.60
2019-01-28T17:05:32.049Z,97.60
2019-01-28T17:08:00.990Z,97.60
2019-01-28T17:10:30.018Z,97.60
2019-01-28T17:12:59.041Z,97.70
2019-01-28T17:15:28.070Z,97.70
2019-01-28T17:17:57.002Z,97.70
2019-01-28T17:20:35.619Z,97.70
2019-01-28T17:23:02.990Z,97.60
2019-01-28T17:25:40.445Z,97.50
2019-01-28T17:28:09.384Z,97.60
2019-01-28T17:30:46.238Z,98.00
2019-01-28T17:33:15.172Z,97.50
2019-01-28T17:35:44.291Z,97.50
2019-01-28T17:38:13.212Z,97.50
2019-01-28T17:40:42.511Z,97.50
2019-01-28T17:43:12.052Z,97.50
2019-01-28T17:45:41.176Z,97.50
2019-01-28T17:48:10.218Z,97.60
2019-01-28T17:50:43.641Z,97.60
2019-01-28T17:53:09.785Z,97.40
2019-01-28T17:55:51.935Z,97.50
2019-01-28T17:58:21.021Z,97.60
2019-01-28T18:00:51.659Z,97.50
2019-01-28T18:03:20.727Z,97.60
2019-01-28T18:05:49.647Z,97.70
2019-01-28T18:08:31.331Z,97.60
2019-01-28T18:11:00.371Z,97.60
2019-01-28T18:13:29.468Z,97.60
2019-01-28T18:15:58.401Z,97.50
2019-01-28T18:18:27.418Z,97.40
2019-01-28T18:20:56.438Z,97.60
2019-01-28T18:23:26.996Z,97.60
2019-01-28T18:25:56.056Z,97.60
2019-01-28T18:28:25.033Z,97.70
2019-01-28T18:30:54.084Z,97.70
2019-01-28T18:33:23.179Z,97.60
2019-01-28T18:35:52.345Z,97.70
2019-01-28T18:38:21.340Z,97.60
2019-01-28T18:40:50.288Z,97.60
2019-01-28T18:43:19.381Z,97.60
2019-01-28T18:45:48.421Z,97.50
2019-01-28T18:48:17.418Z,97.50
2019-01-28T18:50:46.549Z,97.50
2019-01-28T18:53:15.632Z,97.50
2019-01-28T18:55:45.620Z,97.60
2019-01-28T18:58:14.844Z,97.80
2019-01-28T19:00:43.801Z,97.80
2019-01-28T19:03:12.911Z,97.70
2019-01-28T19:05:55.545Z,97.70
2019-01-28T19:08:32.162Z,97.40
2019-01-28T19:11:08.232Z,97.50
2019-01-28T19:13:44.553Z,97.40
2019-01-28T19:16:20.755Z,97.50
2019-01-28T19:19:00.124Z,97.30
2019-01-28T19:21:33.664Z,97.40
2019-01-28T19:24:02.662Z,97.50
2019-01-28T19:26:31.595Z,97.50
2019-01-28T19:29:00.594Z,97.40
2019-01-28T19:31:29.538Z,97.50
2019-01-28T19:33:58.537Z,97.40
2019-01-28T19:36:27.474Z,97.50
2019-01-28T19:38:56.468Z,97.60
2019-01-28T19:41:25.405Z,97.50
2019-01-28T19:43:54.492Z,97.40
2019-01-28T19:46:23.450Z,97.40
2019-01-28T19:48:52.458Z,97.40
2019-01-28T19:51:21.396Z,97.30
2019-01-28T19:53:50.424Z,97.40
2019-01-28T19:56:19.546Z,97.40
2019-01-28T19:58:48.448Z,97.30
2019-01-28T20:01:17.446Z,97.30
2019-01-28T20:03:46.476Z,97.00
2019-01-28T20:06:15.478Z,96.90
2019-01-28T20:08:44.508Z,96.90
2019-01-28T20:11:13.503Z,97.00
2019-01-28T20:13:42.444Z,97.10
2019-01-28T20:16:11.539Z,97.00
2019-01-28T20:18:40.467Z,97.00
2019-01-28T20:21:09.578Z,97.00
2019-01-28T20:23:38.494Z,96.90
2019-01-28T20:26:07.510Z,97.00
2019-01-28T20:28:36.458Z,96.90
2019-01-28T20:31:05.513Z,96.70
2019-01-28T20:33:34.459Z,96.60
2019-01-28T20:36:03.452Z,96.70
2019-01-28T20:38:32.367Z,96.70
2019-01-28T20:41:01.406Z,96.50
2019-01-28T20:43:30.329Z,96.40
2019-01-28T20:45:59.330Z,96.40
2019-01-28T20:48:28.279Z,96.30
2019-01-28T20:50:57.403Z,96.30
2019-01-28T20:53:26.310Z,96.30
2019-01-28T20:55:55.304Z,96.40
2019-01-28T20:58:24.266Z,96.40
2019-01-28T21:00:53.227Z,96.60
2019-01-28T21:03:22.195Z,96.60
2019-01-28T21:05:51.198Z,96.70
2019-01-28T21:08:20.121Z,96.70
2019-01-28T21:10:49.069Z,96.70
2019-01-28T21:13:18.051Z,97.00
2019-01-28T21:15:46.975Z,97.00
2019-01-28T21:18:15.987Z,96.50
2019-01-28T21:20:44.946Z,96.60
2019-01-28T21:23:13.953Z,96.80
2019-01-28T21:25:42.978Z,96.90
2019-01-28T21:28:12.078Z,97.10
2019-01-28T21:30:40.994Z,97.10
2019-01-28T21:33:09.988Z,97.10
2019-01-28T21:35:49.454Z,96.90
2019-01-28T21:38:31.742Z,97.10
2019-01-28T21:41:00.683Z,96.90
2019-01-28T21:43:29.669Z,96.70
2019-01-28T21:45:58.702Z,96.60
2019-01-28T21:48:27.709Z,96.60
2019-01-28T21:50:56.743Z,96.40
2019-01-28T21:53:25.759Z,96.30
2019-01-28T21:55:54.675Z,96.30
2019-01-28T21:58:23.859Z,96.20
2019-01-28T22:00:52.787Z,96.10
2019-01-28T22:03:21.791Z,96.10
2019-01-28T22:05:50.718Z,96.20
2019-01-28T22:08:19.711Z,96.20
2019-01-28T22:10:48.649Z,96.00
2019-01-28T22:13:17.647Z,96.20
2019-01-28T22:15:46.584Z,96.20
2019-01-28T22:18:15.688Z,96.20
2019-01-28T22:20:44.635Z,96.50
2019-01-28T22:23:13.627Z,96.50
2019-01-28T22:25:42.671Z,96.70
2019-01-28T22:28:11.669Z,96.70
2019-01-28T22:30:40.602Z,96.60
2019-01-28T22:33:09.609Z,96.30
2019-01-28T22:35:38.546Z,96.20
2019-01-28T22:38:07.540Z,96.10
2019-01-28T22:40:36.485Z,95.80
2019-01-28T22:43:05.511Z,95.50
2019-01-28T22:45:34.522Z,95.10
2019-01-28T22:48:03.513Z,94.80
2019-01-28T22:50:32.457Z,95.00
2019-01-28T22:53:01.393Z,95.10
2019-01-28T22:55:30.385Z,95.10
2019-01-28T22:57:59.420Z,94.80
2019-01-28T23:00:49.883Z,94.50
2019-01-28T23:03:20.488Z,94.60
2019-01-28T23:05:49.412Z,94.60
2019-01-28T23:08:18.393Z,94.70
2019-01-28T23:10:47.317Z,95.00
2019-01-28T23:13:16.253Z,95.10
2019-01-28T23:15:45.262Z,94.50
2019-01-28T23:18:14.183Z,94.30
2019-01-28T23:20:43.282Z,94.20
2019-01-28T23:23:12.239Z,94.20
2019-01-28T23:25:41.237Z,94.50
2019-01-28T23:28:10.176Z,94.50
2019-01-28T23:30:39.182Z,94.50
2019-01-28T23:33:08.113Z,94.50
2019-01-28T23:35:37.214Z,94.60
2019-01-28T23:38:06.155Z,94.70
2019-01-28T23:40:35.251Z,94.90
2019-01-28T23:43:04.192Z,95.00
2019-01-28T23:45:33.199Z,95.00
2019-01-28T23:48:02.246Z,95.00
2019-01-28T23:50:31.240Z,95.10
2019-01-28T23:53:00.181Z,95.30
2019-01-28T23:55:29.282Z,95.60
2019-01-28T23:57:58.320Z,95.70
